Time;durP1;ratioP1;P1;durP2;ratioP2;P2;SDS_P1;SDS_P2;PMS_P1;PMS_P2;Temp;Humidity;BMP_temperature;BMP_pressure;BME280_temperature;BME280_humidity;BME280_pressure;Samples;Min_cycle;Max_cycle;Signal;HPM_P1;HPM_P2
2023/01/06 00:01:25;;;;;;;;;1.00;1.00;;;;;-146.44;100.00;58906.56;5018116;28;45410;-60
2023/01/06 00:03:53;;;;;;;;;0.33;0.00;;;;;-146.44;100.00;58906.56;5018070;28;45561;-57
2023/01/06 00:06:21;;;;;;;;;2.00;1.00;;;;;-146.44;100.00;58906.56;5017688;28;46278;-58
2023/01/06 00:08:47;;;;;;;;;0.00;0.00;;;;;-146.44;100.00;58906.56;5016999;28;45497;-58
2023/01/06 00:11:13;;;;;;;;;1.00;0.00;;;;;-146.44;100.00;58906.56;5017359;28;45480;-62
2023/01/06 00:13:40;;;;;;;;;0.67;0.67;;;;;-146.44;100.00;58906.56;5017840;28;45437;-54
2023/01/06 00:16:08;;;;;;;;;0.00;0.00;;;;;-146.44;100.00;58906.56;5017826;28;46294;-60
2023/01/06 00:18:34;;;;;;;;;1.33;1.00;;;;;-146.44;100.00;58906.56;5016750;28;45466;-54
2023/01/06 00:20:59;;;;;;;;;0.33;0.33;;;;;-146.44;100.00;58906.56;5003819;28;45350;-59
2023/01/06 00:23:25;;;;;;;;;1.00;1.00;;;;;-146.44;100.00;58906.56;5017668;28;45468;-52
2023/01/06 00:25:51;;;;;;;;;0.33;0.00;;;;;-146.44;100.00;58906.56;5017130;28;45441;-54
2023/01/06 00:28:16;;;;;;;;;0.00;0.00;;;;;-146.44;100.00;58906.56;5016857;28;45481;-60
2023/01/06 00:30:42;;;;;;;;;1.00;1.00;;;;;-146.44;100.00;58906.56;5016489;28;45521;-58
2023/01/06 00:33:07;;;;;;;;;0.00;0.00;;;;;-146.44;100.00;58906.56;5016836;28;45620;-60
2023/01/06 00:35:33;;;;;;;;;1.33;0.33;;;;;-146.44;100.00;58906.56;5017037;28;52172;-55
2023/01/06 00:37:58;;;;;;;;;1.00;1.00;;;;;-146.44;100.00;58906.56;5017031;28;45554;-54
2023/01/06 00:40:23;;;;;;;;;1.00;1.00;;;;;-146.44;100.00;58906.56;5017565;28;45795;-56
2023/01/06 00:42:49;;;;;;;;;2.00;0.67;;;;;-146.44;100.00;58906.56;5015783;28;45532;-56
2023/01/06 00:45:14;;;;;;;;;2.00;1.00;;;;;-146.44;100.00;58906.56;5016915;28;49893;-56
2023/01/06 00:47:40;;;;;;;;;0.00;0.00;;;;;-146.44;100.00;58906.56;5016853;28;45471;-58
2023/01/06 00:50:05;;;;;;;;;0.33;0.33;;;;;-146.44;100.00;58906.56;5017641;28;45434;-55
2023/01/06 00:52:31;;;;;;;;;0.00;0.00;;;;;-146.44;100.00;58906.56;5030601;28;45558;-60
2023/01/06 00:54:56;;;;;;;;;0.00;0.00;;;;;-146.44;100.00;58906.56;5017121;28;46264;-56
2023/01/06 00:57:22;;;;;;;;;2.00;1.00;;;;;-146.44;100.00;58906.56;5016573;28;45617;-55
2023/01/06 00:59:47;;;;;;;;;1.00;1.00;;;;;-146.44;100.00;58906.56;5016801;28;45418;-54
2023/01/06 01:02:12;;;;;;;;;0.00;0.00;;;;;-146.44;100.00;58906.56;5016795;28;45367;-58
2023/01/06 01:04:38;;;;;;;;;0.67;0.67;;;;;-146.44;100.00;58906.56;5017048;28;46062;-54
2023/01/06 01:07:03;;;;;;;;;0.00;0.00;;;;;-146.44;100.00;58906.56;5015984;28;51403;-56
2023/01/06 01:09:30;;;;;;;;;1.00;0.00;;;;;-146.44;100.00;58906.56;5016919;28;45490;-54
2023/01/06 01:12:08;;;;;;;;;0.00;0.00;;;;;-146.44;100.00;58906.56;5015681;28;45573;-58
2023/01/06 01:14:38;;;;;;;;;0.00;0.00;;;;;-146.44;100.00;58906.56;5015238;28;45521;-60
2023/01/06 01:17:04;;;;;;;;;2.67;2.67;;;;;-146.44;100.00;58906.56;5014575;28;45469;-55
2023/01/06 01:19:30;;;;;;;;;0.00;0.00;;;;;-146.44;100.00;58906.56;5014747;28;45531;-57
2023/01/06 01:21:56;;;;;;;;;0.00;0.00;;;;;-146.44;100.00;58906.56;5016143;28;45388;-60
2023/01/06 01:24:21;;;;;;;;;0.00;0.00;;;;;-146.44;100.00;58906.56;5004845;28;46478;-57
2023/01/06 01:26:47;;;;;;;;;1.00;0.00;;;;;-146.44;100.00;58906.56;5016078;28;45448;-57
2023/01/06 01:29:14;;;;;;;;;2.67;0.00;;;;;-146.44;100.00;58906.56;5016775;28;45549;-59
2023/01/06 01:31:40;;;;;;;;;1.00;0.00;;;;;-146.44;100.00;58906.56;5015544;28;45546;-59
2023/01/06 01:34:06;;;;;;;;;0.00;0.00;;;;;-146.44;100.00;58906.56;5016172;28;45458;-61
2023/01/06 01:36:32;;;;;;;;;0.00;0.00;;;;;-146.44;100.00;58906.56;5016209;28;45301;-57
2023/01/06 01:38:58;;;;;;;;;0.00;0.00;;;;;-146.44;100.00;58906.56;5016635;28;45391;-55
2023/01/06 01:41:25;;;;;;;;;0.00;0.00;;;;;-146.44;100.00;58906.56;5014663;28;45384;-58
2023/01/06 01:43:54;;;;;;;;;0.00;0.00;;;;;-146.44;100.00;58906.56;5015943;28;46103;-55
2023/01/06 01:46:53;;;;;;;;;0.00;0.00;;;;;-146.44;100.00;58906.56;5016401;28;45486;-53
2023/01/06 01:49:28;;;;;;;;;2.00;0.00;;;;;-146.44;100.00;58906.56;4997073;28;45370;-53
2023/01/06 01:51:56;;;;;;;;;0.00;0.00;;;;;-146.44;100.00;58906.56;5015043;28;45563;-56
2023/01/06 01:54:28;;;;;;;;;1.00;1.00;;;;;-146.44;100.00;58906.56;5014110;28;45601;-54
2023/01/06 01:57:00;;;;;;;;;0.00;0.00;;;;;-146.44;100.00;58906.56;5015013;28;45521;-58
2023/01/06 01:59:29;;;;;;;;;0.00;0.00;;;;;-146.44;100.00;58906.56;5016298;28;45535;-60
2023/01/06 02:01:55;;;;;;;;;1.33;0.00;;;;;-146.44;100.00;58906.56;5015714;28;45429;-57
2023/01/06 02:04:23;;;;;;;;;0.00;0.00;;;;;-146.44;100.00;58906.56;5015286;28;46266;-59
2023/01/06 02:06:49;;;;;;;;;0.00;0.00;;;;;-146.44;100.00;58906.56;5015820;28;45441;-56
2023/01/06 02:09:22;;;;;;;;;0.00;0.00;;;;;-146.44;100.00;58906.56;5015487;28;45466;-55
2023/01/06 02:11:50;;;;;;;;;0.00;0.00;;;;;-146.44;100.00;58906.56;5009823;28;45374;-58
2023/01/06 02:14:21;;;;;;;;;0.00;0.00;;;;;-146.44;100.00;58906.56;5013891;28;45438;-57
2023/01/06 02:17:11;;;;;;;;;0.00;0.00;;;;;-146.44;100.00;58906.56;5015758;28;45537;-59
2023/01/06 02:20:15;;;;;;;;;0.00;0.00;;;;;-146.44;100.00;58906.56;5002534;28;45399;-60
2023/01/06 02:23:05;;;;;;;;;0.00;0.00;;;;;-146.44;100.00;58906.56;5015153;28;45450;-57
2023/01/06 02:25:56;;;;;;;;;0.00;0.00;;;;;-146.44;100.00;58906.56;5015384;28;46031;-57
2023/01/06 02:28:46;;;;;;;;;0.00;0.00;;;;;-146.44;100.00;58906.56;5003460;28;45364;-60
2023/01/06 02:31:42;;;;;;;;;0.00;0.00;;;;;-146.44;100.00;58906.56;5014765;28;45526;-62
2023/01/06 02:34:40;;;;;;;;;0.00;0.00;;;;;-146.44;100.00;58906.56;5014304;28;45470;-63
2023/01/06 02:37:24;;;;;;;;;0.00;0.00;;;;;-146.44;100.00;58906.56;5003868;28;46638;-58
2023/01/06 02:40:04;;;;;;;;;0.00;0.00;;;;;-146.44;100.00;58906.56;5015681;28;46609;-63
2023/01/06 02:42:42;;;;;;;;;0.00;0.00;;;;;-146.44;100.00;58906.56;5015320;28;45513;-62
2023/01/06 02:45:34;;;;;;;;;0.00;0.00;;;;;-146.44;100.00;58906.56;5015124;28;45407;-57
2023/01/06 02:48:11;;;;;;;;;0.00;0.00;;;;;-146.44;100.00;58906.56;5015414;28;45423;-57
2023/01/06 02:50:45;;;;;;;;;0.00;0.00;;;;;-146.44;100.00;58906.56;5015590;28;45481;-57
2023/01/06 02:53:21;;;;;;;;;1.33;1.00;;;;;-146.44;100.00;58906.56;5015667;28;45570;-61
2023/01/06 02:55:50;;;;;;;;;1.00;1.00;;;;;-146.44;100.00;58906.56;5018705;28;45580;-59
2023/01/06 02:58:30;;;;;;;;;0.00;0.00;;;;;-146.44;100.00;58906.56;5017309;28;45506;-54
2023/01/06 03:01:03;;;;;;;;;1.67;0.00;;;;;-146.44;100.00;58906.56;5018423;28;45429;-58
2023/01/06 03:03:33;;;;;;;;;0.00;0.00;;;;;-146.44;100.00;58906.56;5018279;28;45421;-57
2023/01/06 03:06:06;;;;;;;;;0.00;0.00;;;;;-146.44;100.00;58906.56;5018027;28;45379;-54
2023/01/06 03:08:32;;;;;;;;;1.00;0.00;;;;;-146.44;100.00;58906.56;5017472;28;45528;-59
2023/01/06 03:11:00;;;;;;;;;0.00;0.00;;;;;-146.44;100.00;58906.56;5018230;28;45377;-58
2023/01/06 03:13:38;;;;;;;;;0.00;0.00;;;;;-146.44;100.00;58906.56;5018838;28;45471;-59
2023/01/06 03:16:04;;;;;;;;;0.00;0.00;;;;;-146.44;100.00;58906.56;5017767;28;45337;-55
2023/01/06 03:18:31;;;;;;;;;0.00;0.00;;;;;-146.44;100.00;58906.56;5018211;28;47790;-59
2023/01/06 03:21:00;;;;;;;;;1.00;0.00;;;;;-146.44;100.00;58906.56;5018620;28;45487;-58
2023/01/06 03:23:25;;;;;;;;;0.33;0.33;;;;;-146.44;100.00;58906.56;5017348;28;45391;-55
2023/01/06 03:25:51;;;;;;;;;1.00;0.33;;;;;-146.44;100.00;58906.56;5016958;28;45643;-60
2023/01/06 03:28:17;;;;;;;;;0.00;0.00;;;;;-146.44;100.00;58906.56;5017147;28;46557;-52
2023/01/06 03:30:48;;;;;;;;;0.00;0.00;;;;;-146.44;100.00;58906.56;5018145;28;50329;-54
2023/01/06 03:33:29;;;;;;;;;0.00;0.00;;;;;-146.44;100.00;58906.56;5018491;28;45470;-57
2023/01/06 03:36:18;;;;;;;;;0.00;0.00;;;;;-146.44;100.00;58906.56;5015887;28;45486;-55
2023/01/06 03:39:27;;;;;;;;;0.00;0.00;;;;;-146.44;100.00;58906.56;5007079;28;46373;-57
2023/01/06 03:45:13;;;;;;;;;0.67;0.00;;;;;-146.44;100.00;58906.56;5018510;28;45470;-57
2023/01/06 03:47:52;;;;;;;;;0.00;0.00;;;;;-146.44;100.00;58906.56;5017997;28;45426;-60
2023/01/06 03:50:47;;;;;;;;;0.00;0.00;;;;;-146.44;100.00;58906.56;5003868;28;46375;-57
2023/01/06 03:53:22;;;;;;;;;0.00;0.00;;;;;-146.44;100.00;58906.56;5012870;28;45474;-54
2023/01/06 03:55:58;;;;;;;;;0.00;0.00;;;;;-146.44;100.00;58906.56;5018357;28;45376;-57
2023/01/06 03:58:26;;;;;;;;;1.00;1.00;;;;;-146.44;100.00;58906.56;5018138;28;45477;-59
2023/01/06 04:00:53;;;;;;;;;0.33;0.33;;;;;-146.44;100.00;58906.56;5017294;28;45530;-58
2023/01/06 04:03:24;;;;;;;;;1.00;1.00;;;;;-146.44;100.00;58906.56;5017847;28;45452;-59
2023/01/06 04:05:50;;;;;;;;;0.00;0.00;;;;;-146.44;100.00;58906.56;5018053;28;45497;-61
2023/01/06 04:08:16;;;;;;;;;0.00;0.00;;;;;-146.44;100.00;58906.56;5018059;28;45458;-59
2023/01/06 04:10:41;;;;;;;;;0.00;0.00;;;;;-146.44;100.00;58906.56;5016277;28;45367;-62
2023/01/06 04:13:06;;;;;;;;;1.00;1.00;;;;;-146.44;100.00;58906.56;5017653;28;48510;-53
2023/01/06 04:15:31;;;;;;;;;0.00;0.00;;;;;-146.44;100.00;58906.56;5017960;28;45498;-59
2023/01/06 04:17:57;;;;;;;;;0.00;0.00;;;;;-146.44;100.00;58906.56;5017820;28;45585;-60
2023/01/06 04:20:28;;;;;;;;;0.00;0.00;;;;;-146.44;100.00;58906.56;5017014;28;45644;-60
2023/01/06 04:22:55;;;;;;;;;0.00;0.00;;;;;-146.44;100.00;58906.56;5017694;28;45472;-57
2023/01/06 04:25:20;;;;;;;;;0.00;0.00;;;;;-146.44;100.00;58906.56;5017431;28;45425;-59
2023/01/06 04:27:46;;;;;;;;;0.00;0.00;;;;;-146.44;100.00;58906.56;5017506;28;45684;-54
2023/01/06 04:30:11;;;;;;;;;2.00;0.00;;;;;-146.44;100.00;58906.56;5017075;28;46064;-58
2023/01/06 04:32:37;;;;;;;;;0.33;0.00;;;;;-146.44;100.00;58906.56;5015384;28;45678;-59
2023/01/06 04:35:03;;;;;;;;;0.33;0.33;;;;;-146.44;100.00;58906.56;5017507;28;45506;-61
2023/01/06 04:37:28;;;;;;;;;0.33;0.00;;;;;-146.44;100.00;58906.56;5016969;28;45431;-60
2023/01/06 04:39:54;;;;;;;;;0.00;0.00;;;;;-146.44;100.00;58906.56;5017120;28;45454;-58
2023/01/06 04:42:19;;;;;;;;;0.00;0.00;;;;;-146.44;100.00;58906.56;5016316;28;49686;-57
2023/01/06 04:44:44;;;;;;;;;0.00;0.00;;;;;-146.44;100.00;58906.56;5017526;28;45435;-61
2023/01/06 04:47:10;;;;;;;;;0.00;0.00;;;;;-146.44;100.00;58906.56;5017418;28;45630;-59
2023/01/06 04:49:36;;;;;;;;;0.00;0.00;;;;;-146.44;100.00;58906.56;5017137;28;47011;-61
2023/01/06 04:52:02;;;;;;;;;0.00;0.00;;;;;-146.44;100.00;58906.56;5016339;28;45411;-58
2023/01/06 04:54:27;;;;;;;;;0.00;0.00;;;;;-146.44;100.00;58906.56;5017257;28;45313;-54
2023/01/06 04:56:52;;;;;;;;;1.00;0.00;;;;;-146.44;100.00;58906.56;5017231;28;45494;-58
2023/01/06 04:59:18;;;;;;;;;1.00;1.00;;;;;-146.44;100.00;58906.56;5017071;28;45391;-61
2023/01/06 05:01:43;;;;;;;;;1.00;1.00;;;;;-146.44;100.00;58906.56;5015631;28;45495;-58
2023/01/06 05:04:08;;;;;;;;;0.00;0.00;;;;;-146.44;100.00;58906.56;5017219;28;45387;-61
2023/01/06 05:06:34;;;;;;;;;0.67;0.00;;;;;-146.44;100.00;58906.56;5017135;28;45502;-56
2023/01/06 05:09:00;;;;;;;;;0.00;0.00;;;;;-146.44;100.00;58906.56;5015668;28;46434;-60
2023/01/06 05:11:26;;;;;;;;;2.00;1.00;;;;;-146.44;100.00;58906.56;5015451;28;45387;-61
2023/01/06 05:13:53;;;;;;;;;0.00;0.00;;;;;-146.44;100.00;58906.56;5015612;28;45396;-57
2023/01/06 05:16:32;;;;;;;;;0.00;0.00;;;;;-146.44;100.00;58906.56;5016243;28;45549;-58
2023/01/06 05:18:58;;;;;;;;;0.67;0.00;;;;;-146.44;100.00;58906.56;5016016;28;45528;-60
2023/01/06 05:21:25;;;;;;;;;0.33;0.00;;;;;-146.44;100.00;58906.56;5014631;28;45547;-59
2023/01/06 05:23:51;;;;;;;;;1.00;1.00;;;;;-146.44;100.00;58906.56;5016732;28;45484;-57
2023/01/06 05:26:18;;;;;;;;;0.00;0.00;;;;;-146.44;100.00;58906.56;5016479;28;45475;-56
2023/01/06 05:28:44;;;;;;;;;0.33;0.33;;;;;-146.44;100.00;58906.56;5016335;28;45495;-58
2023/01/06 05:31:10;;;;;;;;;0.67;0.67;;;;;-146.44;100.00;58906.56;5014826;28;45383;-61
2023/01/06 05:33:36;;;;;;;;;0.00;0.00;;;;;-146.44;100.00;58906.56;5016631;28;45394;-57
2023/01/06 05:36:05;;;;;;;;;1.00;1.00;;;;;-146.44;100.00;58906.56;5016362;28;45494;-58
2023/01/06 05:38:30;;;;;;;;;0.00;0.00;;;;;-146.44;100.00;58906.56;5016177;28;46408;-60
2023/01/06 05:40:56;;;;;;;;;0.67;0.67;;;;;-146.44;100.00;58906.56;5015586;28;45457;-60
2023/01/06 05:43:22;;;;;;;;;0.00;0.00;;;;;-146.44;100.00;58906.56;5016484;28;45750;-59
2023/01/06 05:45:48;;;;;;;;;0.00;0.00;;;;;-146.44;100.00;58906.56;5016545;28;45426;-58
2023/01/06 05:48:14;;;;;;;;;0.33;0.00;;;;;-146.44;100.00;58906.56;5016134;28;46258;-59
2023/01/06 05:50:39;;;;;;;;;0.00;0.00;;;;;-146.44;100.00;58906.56;5015149;28;45913;-56
2023/01/06 05:53:04;;;;;;;;;0.00;0.00;;;;;-146.44;100.00;58906.56;5016361;28;45482;-62
2023/01/06 05:55:29;;;;;;;;;0.67;0.67;;;;;-146.44;100.00;58906.56;5014927;28;45665;-62
2023/01/06 05:57:55;;;;;;;;;1.00;1.00;;;;;-146.44;100.00;58906.56;5016106;28;48104;-56
2023/01/06 06:00:20;;;;;;;;;1.00;1.00;;;;;-146.44;100.00;58906.56;5013827;28;45483;-56
2023/01/06 06:02:45;;;;;;;;;0.00;0.00;;;;;-146.44;100.00;58906.56;5015686;28;45609;-58
2023/01/06 06:05:11;;;;;;;;;0.67;0.67;;;;;-146.44;100.00;58906.56;5015875;28;46917;-57
2023/01/06 06:07:37;;;;;;;;;0.00;0.00;;;;;-146.44;100.00;58906.56;5016076;28;45433;-61
2023/01/06 06:10:03;;;;;;;;;0.00;0.00;;;;;-146.44;100.00;58906.56;5012935;28;45572;-61
2023/01/06 06:12:28;;;;;;;;;0.00;0.00;;;;;-146.44;100.00;58906.56;5015854;28;45475;-59
2023/01/06 06:14:54;;;;;;;;;0.00;0.00;;;;;-146.44;100.00;58906.56;5011901;28;45526;-57
2023/01/06 06:17:19;;;;;;;;;0.00;0.00;;;;;-146.44;100.00;58906.56;5015099;28;45359;-62
2023/01/06 06:19:44;;;;;;;;;0.00;0.00;;;;;-146.44;100.00;58906.56;5015271;28;51485;-53
2023/01/06 06:22:10;;;;;;;;;1.00;1.00;;;;;-146.44;100.00;58906.56;5015845;28;45505;-61
2023/01/06 06:24:35;;;;;;;;;1.00;0.00;;;;;-146.44;100.00;58906.56;5015544;28;45450;-60
2023/01/06 06:27:00;;;;;;;;;0.00;0.00;;;;;-146.44;100.00;58906.56;5015506;28;46059;-57
2023/01/06 06:29:25;;;;;;;;;0.00;0.00;;;;;-146.44;100.00;58906.56;5018999;28;49758;-58
2023/01/06 06:31:51;;;;;;;;;0.00;0.00;;;;;-146.44;100.00;58906.56;5019687;28;45482;-58
2023/01/06 06:34:16;;;;;;;;;1.00;1.00;;;;;-146.44;100.00;58906.56;5019051;28;45403;-56
2023/01/06 06:36:42;;;;;;;;;0.00;0.00;;;;;-146.44;100.00;58906.56;5017764;28;47851;-57
2023/01/06 06:39:07;;;;;;;;;0.00;0.00;;;;;-146.44;100.00;58906.56;5018866;28;52750;-58
2023/01/06 06:41:32;;;;;;;;;1.00;0.00;;;;;-146.44;100.00;58906.56;5019097;28;45655;-59
2023/01/06 06:43:58;;;;;;;;;1.00;1.00;;;;;-146.44;100.00;58906.56;5018239;28;45600;-59
2023/01/06 06:46:23;;;;;;;;;0.00;0.00;;;;;-146.44;100.00;58906.56;5016834;28;45980;-58
2023/01/06 06:48:49;;;;;;;;;0.00;0.00;;;;;-146.44;100.00;58906.56;5018666;28;45679;-59
2023/01/06 06:51:18;;;;;;;;;1.67;0.00;;;;;-146.44;100.00;58906.56;5018144;28;45541;-51
2023/01/06 06:53:43;;;;;;;;;0.00;0.00;;;;;-146.44;100.00;58906.56;5005270;28;45651;-59
2023/01/06 06:56:10;;;;;;;;;0.00;0.00;;;;;-146.44;100.00;58906.56;5018234;28;45844;-56
2023/01/06 06:58:36;;;;;;;;;0.33;0.33;;;;;-146.44;100.00;58906.56;5018178;28;45517;-60
2023/01/06 07:01:09;;;;;;;;;0.67;0.67;;;;;-146.44;100.00;58906.56;5019018;28;45384;-61
2023/01/06 07:03:35;;;;;;;;;0.33;0.00;;;;;-146.44;100.00;58906.56;5016871;28;45468;-56
2023/01/06 07:06:02;;;;;;;;;0.00;0.00;;;;;-146.44;100.00;58906.56;5016638;28;45604;-58
2023/01/06 07:08:28;;;;;;;;;1.00;1.00;;;;;-146.44;100.00;58906.56;5018213;28;45546;-57
2023/01/06 07:10:53;;;;;;;;;1.00;1.00;;;;;-146.44;100.00;58906.56;5017459;28;45554;-57
2023/01/06 07:13:19;;;;;;;;;0.00;0.00;;;;;-146.44;100.00;58906.56;5017864;28;45537;-60
2023/01/06 07:15:44;;;;;;;;;1.00;1.00;;;;;-146.44;100.00;58906.56;5018680;28;46116;-59
2023/01/06 07:18:09;;;;;;;;;2.00;1.33;;;;;-146.44;100.00;58906.56;5017083;28;45431;-57
2023/01/06 07:20:37;;;;;;;;;1.00;1.00;;;;;-146.44;100.00;58906.56;5017385;28;45402;-57
2023/01/06 07:23:03;;;;;;;;;1.00;1.00;;;;;-146.44;100.00;58906.56;5018525;28;45317;-58
2023/01/06 07:25:29;;;;;;;;;1.00;1.00;;;;;-146.44;100.00;58906.56;5018017;28;46407;-54
2023/01/06 07:28:04;;;;;;;;;1.00;1.00;;;;;-146.44;100.00;58906.56;5018063;28;45529;-56
2023/01/06 07:30:29;;;;;;;;;1.00;1.00;;;;;-146.44;100.00;58906.56;5017889;28;45367;-59
2023/01/06 07:32:55;;;;;;;;;0.00;0.00;;;;;-146.44;100.00;58906.56;5015986;28;45504;-58
2023/01/06 07:35:20;;;;;;;;;0.67;0.67;;;;;-146.44;100.00;58906.56;5018385;28;45954;-57
2023/01/06 07:37:45;;;;;;;;;1.00;1.00;;;;;-146.44;100.00;58906.56;5017334;28;48331;-52
2023/01/06 07:40:11;;;;;;;;;0.67;0.67;;;;;-146.44;100.00;58906.56;5016970;28;45628;-59
2023/01/06 07:42:37;;;;;;;;;0.67;0.67;;;;;-146.44;100.00;58906.56;5016958;28;45362;-56
2023/01/06 07:45:03;;;;;;;;;1.00;1.00;;;;;-146.44;100.00;58906.56;5017335;28;46245;-52
2023/01/06 07:47:29;;;;;;;;;2.00;2.00;;;;;-146.44;100.00;58906.56;5017621;28;45467;-56
2023/01/06 07:49:54;;;;;;;;;1.33;1.33;;;;;-146.44;100.00;58906.56;5016530;28;45734;-57
2023/01/06 07:52:19;;;;;;;;;2.00;2.00;;;;;-146.44;100.00;58906.56;5017831;28;45454;-58
2023/01/06 07:54:45;;;;;;;;;1.00;1.00;;;;;-146.44;100.00;58906.56;5017281;28;46977;-56
2023/01/06 07:57:10;;;;;;;;;1.00;1.00;;;;;-146.44;100.00;58906.56;5017477;28;45494;-55
2023/01/06 07:59:35;;;;;;;;;0.33;0.33;;;;;-146.44;100.00;58906.56;5017398;28;45391;-59
2023/01/06 08:02:01;;;;;;;;;2.00;2.00;;;;;-146.44;100.00;58906.56;5017265;28;45439;-57
2023/01/06 08:04:26;;;;;;;;;1.00;1.00;;;;;-146.44;100.00;58906.56;5017385;28;46337;-59
2023/01/06 08:06:51;;;;;;;;;2.67;2.67;;;;;-146.44;100.00;58906.56;5017214;28;45433;-51
2023/01/06 08:09:17;;;;;;;;;2.00;2.00;;;;;-146.44;100.00;58906.56;5017500;28;45939;-57
2023/01/06 08:11:42;;;;;;;;;3.00;1.67;;;;;-146.44;100.00;58906.56;5017323;28;45413;-58
2023/01/06 08:14:07;;;;;;;;;3.00;3.00;;;;;-146.44;100.00;58906.56;5014374;28;51898;-54
2023/01/06 08:16:33;;;;;;;;;4.00;4.00;;;;;-146.44;100.00;58906.56;5017281;28;45471;-60
2023/01/06 08:18:58;;;;;;;;;3.00;3.00;;;;;-146.44;100.00;58906.56;5016898;28;45354;-54
2023/01/06 08:21:23;;;;;;;;;2.33;2.33;;;;;-146.44;100.00;58906.56;5017362;28;45328;-60
2023/01/06 08:23:48;;;;;;;;;2.00;2.00;;;;;-146.44;100.00;58906.56;5016814;28;45416;-58
2023/01/06 08:26:16;;;;;;;;;3.00;3.00;;;;;-146.44;100.00;58906.56;5016825;28;45457;-59
2023/01/06 08:28:43;;;;;;;;;9.00;8.33;;;;;-146.44;100.00;58906.56;5017076;28;45320;-56
2023/01/06 08:31:11;;;;;;;;;4.00;4.00;;;;;-146.44;100.00;58906.56;5016725;28;45482;-62
2023/01/06 08:33:36;;;;;;;;;2.00;2.00;;;;;-146.44;100.00;58906.56;5016851;28;45423;-57
2023/01/06 08:36:05;;;;;;;;;2.00;2.00;;;;;-146.44;100.00;58906.56;5016742;28;45437;-58
2023/01/06 08:38:32;;;;;;;;;3.00;3.00;;;;;-146.44;100.00;58906.56;5016761;28;45440;-57
2023/01/06 08:40:58;;;;;;;;;2.00;2.00;;;;;-146.44;100.00;58906.56;5016858;28;45597;-57
2023/01/06 08:43:24;;;;;;;;;1.00;1.00;;;;;-146.44;100.00;58906.56;5015719;28;45578;-61
2023/01/06 08:45:50;;;;;;;;;2.00;2.00;;;;;-146.44;100.00;58906.56;5016562;28;45420;-55
2023/01/06 08:48:16;;;;;;;;;2.00;2.00;;;;;-146.44;100.00;58906.56;5016624;28;45466;-57
2023/01/06 08:50:42;;;;;;;;;2.67;1.67;;;;;-146.44;100.00;58906.56;5014499;28;45693;-59
2023/01/06 08:53:08;;;;;;;;;1.00;1.00;;;;;-146.44;100.00;58906.56;5014747;28;46388;-52
2023/01/06 08:55:37;;;;;;;;;2.00;2.00;;;;;-146.44;100.00;58906.56;5016429;28;45482;-59
2023/01/06 08:58:03;;;;;;;;;2.33;2.33;;;;;-146.44;100.00;58906.56;5016605;28;45526;-58
2023/01/06 09:00:28;;;;;;;;;1.00;1.00;;;;;-146.44;100.00;58906.56;5016115;28;45505;-55
2023/01/06 09:02:53;;;;;;;;;2.00;2.00;;;;;-146.44;100.00;58906.56;5016289;28;46143;-57
2023/01/06 09:05:19;;;;;;;;;1.00;1.00;;;;;-146.44;100.00;58906.56;5016230;28;45443;-55
2023/01/06 09:07:44;;;;;;;;;1.00;1.00;;;;;-146.44;100.00;58906.56;5015021;28;45656;-56
2023/01/06 09:10:10;;;;;;;;;2.00;2.00;;;;;-146.44;100.00;58906.56;5016307;28;45596;-60
2023/01/06 09:12:36;;;;;;;;;2.67;2.67;;;;;-146.44;100.00;58906.56;5014759;28;45572;-55
2023/01/06 09:15:02;;;;;;;;;3.33;2.00;;;;;-146.44;100.00;58906.56;5015352;28;45433;-57
2023/01/06 09:17:29;;;;;;;;;2.00;2.00;;;;;-146.44;100.00;58906.56;5016160;28;45444;-61
2023/01/06 09:19:54;;;;;;;;;2.33;2.33;;;;;-146.44;100.00;58906.56;5015939;28;45561;-53
2023/01/06 09:22:19;;;;;;;;;2.67;2.67;;;;;-146.44;100.00;58906.56;5015447;28;53996;-57
2023/01/06 09:24:44;;;;;;;;;4.00;3.00;;;;;-146.44;100.00;58906.56;5016226;28;45445;-57
2023/01/06 09:27:10;;;;;;;;;2.00;2.00;;;;;-146.44;100.00;58906.56;5014364;28;45436;-54
2023/01/06 09:29:35;;;;;;;;;2.00;2.00;;;;;-146.44;100.00;58906.56;5015620;28;45605;-59
2023/01/06 09:32:02;;;;;;;;;6.67;5.00;;;;;-146.44;100.00;58906.56;5015684;28;54754;-58
2023/01/06 09:34:27;;;;;;;;;3.00;2.67;;;;;-146.44;100.00;58906.56;5015772;28;45380;-57
2023/01/06 09:36:52;;;;;;;;;3.00;3.00;;;;;-146.44;100.00;58906.56;5016010;28;45446;-61
2023/01/06 09:39:18;;;;;;;;;5.00;4.33;;;;;-146.44;100.00;58906.56;5016011;28;45506;-58
2023/01/06 09:41:55;;;;;;;;;2.33;2.33;;;;;-146.44;100.00;58906.56;5015729;28;47396;-61
2023/01/06 09:44:56;;;;;;;;;4.67;4.67;;;;;-146.44;100.00;58906.56;5013438;28;45487;-54
2023/01/06 09:47:29;;;;;;;;;6.33;6.00;;;;;-146.44;100.00;58906.56;5005838;28;45511;-53
2023/01/06 09:50:10;;;;;;;;;6.33;6.33;;;;;-146.44;100.00;58906.56;5015650;28;45537;-56
2023/01/06 09:52:53;;;;;;;;;4.00;4.00;;;;;-146.44;100.00;58906.56;5015655;28;45481;-54
2023/01/06 09:55:28;;;;;;;;;3.67;3.67;;;;;-146.44;100.00;58906.56;5015232;28;45429;-57
2023/01/06 09:58:38;;;;;;;;;2.67;2.67;;;;;-146.44;100.00;58906.56;5015664;28;45516;-55
2023/01/06 10:01:08;;;;;;;;;3.00;3.00;;;;;-146.44;100.00;58906.56;4945261;28;45526;-59
2023/01/06 10:03:34;;;;;;;;;4.33;4.00;;;;;-146.44;100.00;58906.56;4954071;28;46283;-53
2023/01/06 10:06:02;;;;;;;;;6.67;6.00;;;;;-146.44;100.00;58906.56;4985453;28;45455;-57
2023/01/06 10:08:33;;;;;;;;;4.00;4.00;;;;;-146.44;100.00;58906.56;5015326;28;45391;-57
2023/01/06 10:11:11;;;;;;;;;3.33;3.33;;;;;-146.44;100.00;58906.56;5015353;28;45557;-57
2023/01/06 10:13:59;;;;;;;;;2.67;2.67;;;;;-146.44;100.00;58906.56;5013053;28;46393;-59
2023/01/06 10:16:30;;;;;;;;;4.00;4.00;;;;;-146.44;100.00;58906.56;5014660;28;45365;-59
2023/01/06 10:19:18;;;;;;;;;4.00;4.00;;;;;-146.44;100.00;58906.56;5014890;28;45520;-53
2023/01/06 10:22:00;;;;;;;;;4.00;4.00;;;;;-146.44;100.00;58906.56;5015341;28;45431;-60
2023/01/06 10:24:36;;;;;;;;;3.00;3.00;;;;;-146.44;100.00;58906.56;5013600;28;46350;-60
2023/01/06 10:27:19;;;;;;;;;3.67;3.00;;;;;-146.44;100.00;58906.56;5014970;28;45483;-57
2023/01/06 10:29:47;;;;;;;;;5.33;4.00;;;;;-146.44;100.00;58906.56;5015013;28;45526;-58
2023/01/06 10:32:15;;;;;;;;;17.00;13.33;;;;;-146.44;100.00;58906.56;5015079;28;45387;-58
2023/01/06 10:34:45;;;;;;;;;3.33;3.33;;;;;-146.44;100.00;58906.56;5014803;28;46164;-59
2023/01/06 10:37:21;;;;;;;;;4.00;4.00;;;;;-146.44;100.00;58906.56;5015022;28;45538;-53
2023/01/06 10:39:52;;;;;;;;;3.33;3.00;;;;;-146.44;100.00;58906.56;5014966;28;45464;-59
2023/01/06 10:42:56;;;;;;;;;5.00;3.67;;;;;-146.44;100.00;58906.56;5013241;28;45506;-57
2023/01/06 10:45:26;;;;;;;;;6.00;4.00;;;;;-146.44;100.00;58906.56;5002042;28;45410;-54
2023/01/06 10:47:52;;;;;;;;;4.33;4.33;;;;;-146.44;100.00;58906.56;5014747;28;45420;-55
2023/01/06 10:50:18;;;;;;;;;3.00;3.00;;;;;-146.44;100.00;58906.56;5014950;28;45519;-55
2023/01/06 10:52:45;;;;;;;;;4.00;3.00;;;;;-146.44;100.00;58906.56;5014757;28;45400;-56
2023/01/06 10:55:45;;;;;;;;;4.00;4.00;;;;;-146.44;100.00;58906.56;5014415;28;46219;-56
2023/01/06 10:58:18;;;;;;;;;3.00;3.00;;;;;-146.44;100.00;58906.56;5014334;28;45506;-61
2023/01/06 11:00:58;;;;;;;;;3.00;3.00;;;;;-146.44;100.00;58906.56;5014287;28;45525;-56
2023/01/06 11:03:24;;;;;;;;;9.67;9.00;;;;;-146.44;100.00;58906.56;5014697;28;45363;-57
2023/01/06 11:06:06;;;;;;;;;4.00;4.00;;;;;-146.44;100.00;58906.56;5014455;28;45415;-56
2023/01/06 11:08:32;;;;;;;;;9.00;9.00;;;;;-146.44;100.00;58906.56;5014576;28;45464;-56
2023/01/06 11:10:58;;;;;;;;;5.67;4.67;;;;;-146.44;100.00;58906.56;5014669;28;45339;-57
2023/01/06 11:13:28;;;;;;;;;5.00;5.00;;;;;-146.44;100.00;58906.56;5014880;28;45631;-59
2023/01/06 11:15:55;;;;;;;;;4.33;4.33;;;;;-146.44;100.00;58906.56;5017247;28;46067;-54
2023/01/06 11:18:25;;;;;;;;;5.00;5.00;;;;;-146.44;100.00;58906.56;5018040;28;45544;-56
2023/01/06 11:21:08;;;;;;;;;2.00;2.00;;;;;-146.44;100.00;58906.56;5017746;28;45535;-56
2023/01/06 11:23:35;;;;;;;;;4.00;2.67;;;;;-146.44;100.00;58906.56;5017972;28;45472;-60